Time;durP1;ratioP1;P1;durP2;ratioP2;P2;SDS_P1;SDS_P2;PMS_P1;PMS_P2;Temp;Humidity;BMP_temperature;BMP_pressure;BME280_temperature;BME280_humidity;BME280_pressure;Samples;Min_cycle;Max_cycle;Signal;HPM_P1;HPM_P2
2022/04/17 00:02:03;;;;;;;6.75;3.08;;;;;;;5.41;80.21;102473.75;5215019;28;20029;-77
2022/04/17 00:04:34;;;;;;;7.32;3.42;;;;;;;5.26;80.61;102463.13;5214432;28;20025;-78
2022/04/17 00:07:04;;;;;;;8.55;3.42;;;;;;;5.24;80.58;102467.41;5214075;28;20112;-77
2022/04/17 00:09:34;;;;;;;5.70;3.03;;;;;;;5.17;81.30;102456.91;5212730;28;20108;-77
2022/04/17 00:12:05;;;;;;;7.55;3.47;;;;;;;5.13;80.89;102463.75;5214485;28;20033;-78
2022/04/17 00:14:36;;;;;;;13.75;5.30;;;;;;;5.13;81.32;102461.16;5214621;28;20031;-77
2022/04/17 00:17:06;;;;;;;12.70;5.70;;;;;;;5.16;81.03;102457.78;5207741;28;20025;-78
2022/04/17 00:19:37;;;;;;;14.63;5.15;;;;;;;5.01;81.87;102457.50;5212970;28;20017;-77
2022/04/17 00:22:07;;;;;;;12.10;4.95;;;;;;;4.99;82.40;102452.28;5202682;28;20025;-78
2022/04/17 00:24:37;;;;;;;7.47;3.97;;;;;;;4.84;83.20;102446.84;5192667;28;20095;-78
2022/04/17 00:27:09;;;;;;;11.60;4.30;;;;;;;4.75;83.98;102449.28;5215454;28;20109;-78
2022/04/17 00:29:39;;;;;;;12.15;5.03;;;;;;;4.63;84.19;102445.59;5193158;28;20037;-78
2022/04/17 00:32:13;;;;;;;13.88;5.03;;;;;;;4.62;84.64;102442.13;5197350;28;20132;-78
2022/04/17 00:34:44;;;;;;;12.48;4.75;;;;;;;4.85;82.77;102438.25;5213089;28;20026;-78
2022/04/17 00:37:14;;;;;;;26.00;9.15;;;;;;;4.58;83.46;102436.88;5214115;28;20068;-77
2022/04/17 00:39:45;;;;;;;46.70;17.08;;;;;;;4.52;84.33;102434.16;5203737;28;20044;-76
2022/04/17 00:42:15;;;;;;;20.90;8.27;;;;;;;4.25;84.93;102431.03;5205501;28;20035;-77
2022/04/17 00:44:45;;;;;;;10.10;4.95;;;;;;;4.37;86.33;102434.75;5211064;28;20030;-76
2022/04/17 00:47:16;;;;;;;10.60;4.20;;;;;;;4.29;86.40;102433.72;5215176;28;20483;-77
2022/04/17 00:49:46;;;;;;;8.73;3.83;;;;;;;4.11;87.16;102430.78;5215797;28;20584;-77
2022/04/17 00:52:20;;;;;;;9.25;4.07;;;;;;;4.00;88.89;102424.53;5211640;28;20017;-77
2022/04/17 00:54:52;;;;;;;10.63;4.22;;;;;;;4.01;88.71;102421.09;5215672;28;20020;-77
2022/04/17 00:57:22;;;;;;;8.55;3.40;;;;;;;3.76;90.75;102420.56;5205548;28;20037;-77
2022/04/17 00:59:53;;;;;;;15.68;5.15;;;;;;;4.02;89.33;102407.34;5194165;28;20021;-77
2022/04/17 01:02:23;;;;;;;12.88;5.43;;;;;;;4.10;86.22;102415.25;5215345;28;20087;-77
2022/04/17 01:04:54;;;;;;;8.25;4.13;;;;;;;3.99;87.67;102425.34;5212634;28;20061;-77
2022/04/17 01:07:24;;;;;;;10.68;3.97;;;;;;;4.06;87.12;102427.25;5214103;28;20033;-77
2022/04/17 01:09:55;;;;;;;9.20;3.92;;;;;;;3.78;88.73;102419.75;5208271;28;20470;-77
2022/04/17 01:12:25;;;;;;;10.27;3.50;;;;;;;3.66;89.58;102419.50;5214176;28;20059;-77
2022/04/17 01:14:56;;;;;;;7.78;3.60;;;;;;;3.61;90.67;102423.66;5210971;28;20049;-76
2022/04/17 01:17:26;;;;;;;9.40;3.58;;;;;;;3.62;90.45;102421.97;5191080;28;20502;-76
2022/04/17 01:19:58;;;;;;;8.80;3.50;;;;;;;3.67;89.54;102418.66;5207651;28;20041;-76
2022/04/17 01:22:28;;;;;;;7.75;3.65;;;;;;;3.74;88.77;102425.69;5210533;28;20086;-76
2022/04/17 01:27:47;;;;;;;12.00;5.07;;;;;;;3.99;86.70;102422.75;5214668;28;20083;-77
2022/04/17 01:30:18;;;;;;;12.80;5.25;;;;;;;4.05;85.94;102422.91;5211563;28;20384;-77
2022/04/17 01:32:48;;;;;;;13.52;4.55;;;;;;;4.05;85.88;102412.56;5214706;28;20382;-77
2022/04/17 01:35:18;;;;;;;11.05;4.40;;;;;;;4.05;86.78;102422.91;5210337;28;20033;-78
2022/04/17 01:37:49;;;;;;;12.05;4.22;;;;;;;4.03;86.67;102414.25;5207928;28;20268;-77
2022/04/17 01:40:19;;;;;;;9.55;3.72;;;;;;;4.02;86.06;102415.09;5192943;28;20304;-77
2022/04/17 01:42:50;;;;;;;10.27;3.38;;;;;;;3.97;85.45;102414.09;5197026;28;20028;-77
2022/04/17 01:45:20;;;;;;;10.38;3.30;;;;;;;4.13;84.38;102404.94;5210255;28;20033;-77
2022/04/17 01:47:50;;;;;;;10.40;3.50;;;;;;;4.05;83.71;102412.56;5214244;28;20021;-77
2022/04/17 01:50:20;;;;;;;5.82;2.97;;;;;;;3.87;85.52;102417.38;5210474;28;20029;-77
2022/04/17 01:52:51;;;;;;;5.55;2.72;;;;;;;3.67;86.53;102420.34;5194726;28;20025;-77
2022/04/17 01:55:21;;;;;;;6.32;3.10;;;;;;;3.43;87.70;102409.50;5209255;28;20482;-77
2022/04/17 01:57:51;;;;;;;8.40;3.35;;;;;;;3.25;89.21;102413.34;5206317;28;20018;-77
2022/04/17 02:00:22;;;;;;;6.25;3.15;;;;;;;3.42;89.12;102404.28;5208523;28;20538;-78
2022/04/17 02:02:53;;;;;;;8.27;3.20;;;;;;;3.45;88.29;102401.75;5210802;28;20029;-77
2022/04/17 02:05:23;;;;;;;9.05;3.17;;;;;;;3.29;89.26;102387.63;5214191;28;20056;-77
2022/04/17 02:07:53;;;;;;;9.55;3.22;;;;;;;3.17;90.65;102386.47;5210839;28;20235;-77
2022/04/17 02:10:23;;;;;;;6.72;3.03;;;;;;;3.11;90.17;102396.66;5209609;28;20100;-76
2022/04/17 02:12:54;;;;;;;7.90;3.30;;;;;;;3.15;90.38;102388.13;5213746;28;20403;-77
2022/04/17 02:15:25;;;;;;;5.57;3.08;;;;;;;3.07;90.53;102389.66;5210710;28;20100;-77
2022/04/17 02:17:55;;;;;;;6.60;3.05;;;;;;;3.08;91.16;102384.56;5213221;28;20444;-77
2022/04/17 02:20:26;;;;;;;7.55;3.50;;;;;;;3.00;91.48;102388.66;5205432;28;20049;-77
2022/04/17 02:22:57;;;;;;;8.85;3.72;;;;;;;2.95;91.66;102394.53;5209372;28;20028;-78
2022/04/17 02:25:27;;;;;;;7.80;3.38;;;;;;;2.89;90.82;102391.81;5193464;28;20036;-77
2022/04/17 02:27:57;;;;;;;8.95;3.50;;;;;;;2.91;91.33;102392.72;5212635;28;20021;-77
2022/04/17 02:30:28;;;;;;;6.38;3.42;;;;;;;2.86;91.52;102392.59;5192904;28;20064;-77
2022/04/17 02:32:58;;;;;;;7.88;3.10;;;;;;;2.96;90.83;102396.28;5191968;28;20041;-76
2022/04/17 02:35:29;;;;;;;6.65;3.25;;;;;;;2.88;91.30;102395.22;5209743;28;20531;-77
2022/04/17 02:37:59;;;;;;;9.02;3.50;;;;;;;2.79;90.58;102395.00;5210762;28;20033;-77
2022/04/17 02:40:30;;;;;;;8.27;3.60;;;;;;;2.71;91.93;102389.63;5212961;28;20103;-78
2022/04/17 02:43:01;;;;;;;9.48;3.33;;;;;;;2.54;93.64;102405.53;5189770;28;20025;-77
2022/04/17 02:45:31;;;;;;;7.55;3.22;;;;;;;2.44;95.20;102393.22;5186866;28;20498;-78
2022/04/17 02:48:01;;;;;;;6.32;3.10;;;;;;;2.53;94.50;102385.75;5212343;28;20028;-78
2022/04/17 02:50:32;;;;;;;10.88;3.70;;;;;;;2.64;93.58;102392.03;5193568;28;20029;-77
2022/04/17 02:53:03;;;;;;;8.20;3.45;;;;;;;2.53;93.18;102384.00;5209056;28;20025;-77
2022/04/17 02:55:33;;;;;;;7.22;3.30;;;;;;;2.44;94.05;102388.94;5202739;28;20117;-77
2022/04/17 02:58:04;;;;;;;9.98;3.55;;;;;;;2.51;94.44;102377.94;5211239;28;20105;-77
2022/04/17 03:05:35;;;;;;;7.15;3.47;;;;;;;2.58;94.16;102379.88;5215278;28;20033;-78
2022/04/17 03:06:15;;;;;;;10.77;3.78;;;;;;;2.18;96.61;102386.53;5216660;28;20035;-77
2022/04/17 03:08:45;;;;;;;7.78;3.47;;;;;;;2.06;98.17;102379.34;5196744;28;20025;-77
2022/04/17 03:11:16;;;;;;;9.18;3.50;;;;;;;1.92;98.24;102375.50;5213023;22;20540;-79
2022/04/17 03:13:48;;;;;;;9.23;3.17;;;;;;;1.83;98.09;102379.50;5198579;28;20067;-78
2022/04/17 03:16:18;;;;;;;9.35;3.78;;;;;;;2.07;98.00;102378.50;5198161;28;20025;-77
2022/04/17 03:18:50;;;;;;;9.02;3.35;;;;;;;2.29;96.04;102374.75;5219158;28;20036;-78
2022/04/17 03:21:21;;;;;;;7.50;3.35;;;;;;;2.52;92.24;102368.50;5193675;28;20017;-79
2022/04/17 03:23:51;;;;;;;6.65;3.63;;;;;;;2.37;92.06;102373.28;5198338;28;20556;-78
2022/04/17 03:26:21;;;;;;;7.80;3.28;;;;;;;2.28;92.39;102370.44;5184258;28;20042;-77
2022/04/17 03:28:55;;;;;;;8.77;3.20;;;;;;;2.13;92.08;102373.50;5199317;28;20041;-77
2022/04/17 03:31:25;;;;;;;5.15;2.33;;;;;;;2.11;92.53;102371.69;5194808;28;20018;-77
2022/04/17 03:33:56;;;;;;;6.05;2.80;;;;;;;2.12;91.88;102365.69;5198912;28;20441;-77
2022/04/17 03:36:26;;;;;;;7.38;2.80;;;;;;;2.02;92.65;102361.16;5195284;28;20403;-77
2022/04/17 03:38:56;;;;;;;5.40;2.50;;;;;;;1.94;93.98;102358.34;5198827;28;20029;-77
2022/04/17 03:41:26;;;;;;;7.25;2.70;;;;;;;1.77;94.71;102358.69;5195700;28;20105;-77
2022/04/17 03:43:57;;;;;;;5.32;2.72;;;;;;;1.68;96.06;102350.72;5196554;28;20029;-77
2022/04/17 03:46:27;;;;;;;11.10;3.38;;;;;;;1.53;98.03;102358.00;5194785;28;20025;-77
2022/04/17 03:48:57;;;;;;;6.90;2.83;;;;;;;1.52;97.03;102355.38;5178388;28;20028;-77
2022/04/17 03:51:28;;;;;;;6.78;2.92;;;;;;;1.48;98.52;102349.28;5191379;28;20029;-77
2022/04/17 03:53:58;;;;;;;6.85;2.60;;;;;;;1.83;95.66;102346.88;5170202;28;20455;-78
2022/04/17 03:56:28;;;;;;;5.80;2.67;;;;;;;1.71;93.71;102340.50;5179824;28;20036;-78
2022/04/17 03:59:01;;;;;;;6.45;2.60;;;;;;;1.76;93.57;102340.63;5196734;28;20395;-79
2022/04/17 04:01:31;;;;;;;6.88;2.63;;;;;;;1.52;95.16;102335.66;5193844;28;20113;-77
2022/04/17 04:04:02;;;;;;;5.45;2.40;;;;;;;1.56;93.94;102342.63;5197513;28;20085;-78
2022/04/17 04:06:33;;;;;;;7.35;2.60;;;;;;;1.57;94.55;102334.06;5193580;28;20030;-77
2022/04/17 04:09:04;;;;;;;4.60;2.40;;;;;;;1.60;95.57;102338.47;5171378;28;20030;-78
2022/04/17 04:11:34;;;;;;;7.97;2.65;;;;;;;1.52;95.03;102340.81;5175342;28;20535;-77
2022/04/17 04:14:05;;;;;;;4.72;2.40;;;;;;;1.57;94.44;102334.06;5178915;28;20038;-77
2022/04/17 04:16:36;;;;;;;6.63;2.60;;;;;;;1.65;92.88;102331.72;5178903;28;20554;-78
2022/04/17 04:19:06;;;;;;;5.05;2.65;;;;;;;1.65;93.34;102324.00;5178113;28;20041;-78
2022/04/17 04:21:47;;;;;;;6.10;2.58;;;;;;;1.52;92.91;102319.31;5198878;28;20487;-78
2022/04/17 04:24:20;;;;;;;8.30;2.35;;;;;;;1.42;94.77;102330.19;5200463;28;20080;-79
2022/04/17 04:29:40;;;;;;;6.05;2.53;;;;;;;1.21;98.58;102321.84;5197685;28;20033;-78
2022/04/17 04:32:11;;;;;;;5.18;2.50;;;;;;;1.43;97.91;102309.63;5177046;28;20668;-78
2022/04/17 04:34:42;;;;;;;4.57;2.63;;;;;;;1.52;94.35;102322.78;5179296;28;20040;-78
2022/04/17 04:37:12;;;;;;;6.22;2.65;;;;;;;1.39;95.69;102318.09;5194828;28;20037;-77
2022/04/17 04:39:43;;;;;;;4.40;2.30;;;;;;;1.51;96.89;102318.47;5196820;28;20025;-77
2022/04/17 04:42:13;;;;;;;4.40;2.20;;;;;;;1.67;98.36;102319.75;5177287;28;20017;-78
2022/04/17 04:44:43;;;;;;;5.60;2.50;;;;;;;1.46;96.40;102314.88;5186128;28;20022;-77
2022/04/17 04:47:13;;;;;;;4.28;2.42;;;;;;;1.46;97.55;102311.44;5197587;28;20048;-77
2022/04/17 04:49:44;;;;;;;5.97;2.75;;;;;;;1.88;95.48;102326.38;5195225;28;20391;-78
2022/04/17 04:52:14;;;;;;;5.00;2.53;;;;;;;1.72;95.41;102308.75;5197870;28;20318;-78
2022/04/17 04:54:44;;;;;;;5.50;2.60;;;;;;;1.79;94.37;102313.25;5194901;28;20121;-78
2022/04/17 04:57:15;;;;;;;5.32;2.75;;;;;;;1.64;95.69;102317.97;5191204;28;20118;-78
2022/04/17 04:59:45;;;;;;;7.95;2.60;;;;;;;1.75;94.03;102320.84;5178440;28;20053;-78
2022/04/17 05:02:15;;;;;;;5.88;2.88;;;;;;;2.37;94.29;102317.38;5161849;28;20033;-77
2022/04/17 05:04:47;;;;;;;5.82;2.70;;;;;;;2.46;92.08;102319.31;5169667;28;20353;-78
2022/04/17 05:07:18;;;;;;;4.63;2.50;;;;;;;2.45;92.18;102317.56;5153577;28;20116;-78
2022/04/17 05:09:48;;;;;;;7.55;2.83;;;;;;;2.12;95.70;102317.59;5174547;28;20324;-78
2022/04/17 05:12:19;;;;;;;6.57;2.92;;;;;;;2.94;88.67;102320.50;5177171;28;20104;-77
2022/04/17 05:14:49;;;;;;;5.93;2.60;;;;;;;3.27;85.65;102310.91;5179746;28;20128;-78
2022/04/17 05:17:20;;;;;;;6.80;3.50;;;;;;;3.11;85.41;102324.34;5192797;28;20022;-76
2022/04/17 05:19:50;;;;;;;5.07;2.22;;;;;;;3.85;86.90;102323.38;5200011;28;20022;-77
2022/04/17 05:22:30;;;;;;;6.30;2.80;;;;;;;6.79;76.51;102314.47;5184441;28;20079;-77
2022/04/17 05:25:00;;;;;;;6.47;2.22;;;;;;;8.69;67.42;102308.28;5201297;28;20026;-77
2022/04/17 05:27:30;;;;;;;6.43;1.98;;;;;;;10.21;62.34;102300.81;5194976;28;20137;-77
2022/04/17 05:30:01;;;;;;;3.60;1.97;;;;;;;11.05;59.46;102296.63;5187145;28;20026;-78
2022/04/17 05:32:31;;;;;;;3.90;2.05;;;;;;;11.83;57.95;102300.97;5194666;28;20272;-77
2022/04/17 05:35:02;;;;;;;4.32;2.10;;;;;;;14.27;54.39;102287.75;5196700;28;20458;-78
2022/04/17 05:37:32;;;;;;;3.97;1.70;;;;;;;13.82;52.18;102296.63;5196184;28;20029;-78
2022/04/17 05:40:03;;;;;;;4.40;1.73;;;;;;;16.27;49.11;102282.16;5195714;28;20237;-79
2022/04/17 05:42:34;;;;;;;4.20;1.90;;;;;;;15.14;50.04;102289.88;5191521;28;20284;-78
2022/04/17 05:45:04;;;;;;;4.18;1.85;;;;;;;15.91;47.07;102282.41;5189673;28;20054;-79
2022/04/17 05:47:35;;;;;;;4.05;2.00;;;;;;;12.88;52.69;102294.94;5186963;28;20165;-77
2022/04/17 05:50:05;;;;;;;3.88;1.90;;;;;;;10.80;56.90;102309.94;5193600;28;20156;-78
2022/04/17 05:52:36;;;;;;;7.10;2.50;;;;;;;9.00;60.24;102311.72;5203233;28;20025;-77
2022/04/17 05:55:08;;;;;;;6.13;2.80;;;;;;;6.86;66.16;102322.34;5196816;28;20036;-78
2022/04/17 05:57:38;;;;;;;4.78;2.55;;;;;;;7.07;68.30;102321.63;5190390;28;20679;-76
2022/04/17 06:00:09;;;;;;;5.00;2.55;;;;;;;6.43;71.07;102329.75;5182972;28;20207;-77
2022/04/17 06:02:40;;;;;;;5.43;2.65;;;;;;;6.52;70.70;102315.13;5194528;28;20096;-76
2022/04/17 06:05:11;;;;;;;4.70;2.40;;;;;;;6.26;73.07;102315.75;5175365;28;20044;-77
2022/04/17 06:07:41;;;;;;;5.53;2.33;;;;;;;5.76;76.73;102322.94;5172395;28;20060;-76
2022/04/17 06:10:13;;;;;;;4.90;2.13;;;;;;;6.03;74.71;102318.09;5169153;28;20029;-76
2022/04/17 06:12:43;;;;;;;4.97;2.33;;;;;;;5.91;77.52;102311.91;5193563;28;20109;-76
2022/04/17 06:15:14;;;;;;;6.93;2.53;;;;;;;5.65;81.42;102321.06;5177689;28;20132;-76
2022/04/17 06:17:44;;;;;;;4.78;2.50;;;;;;;5.77;81.05;102314.28;5175619;28;20045;-76
2022/04/17 06:20:15;;;;;;;6.82;2.40;;;;;;;5.53;80.87;102316.59;5191588;28;20048;-76
2022/04/17 06:22:45;;;;;;;6.70;2.25;;;;;;;5.15;83.86;102305.72;5167101;28;20472;-76
2022/04/17 06:25:15;;;;;;;4.88;2.55;;;;;;;5.23;82.55;102312.75;5163171;28;20464;-76
2022/04/17 06:27:47;;;;;;;6.10;2.65;;;;;;;5.54;81.90;102309.72;5186366;28;20030;-76
2022/04/17 06:30:21;;;;;;;7.10;3.05;;;;;;;5.79;80.57;102301.38;5188316;28;20376;-77
2022/04/17 06:32:51;;;;;;;6.60;2.92;;;;;;;5.87;82.35;102305.81;5185438;28;20092;-77
2022/04/17 06:35:21;;;;;;;7.55;3.33;;;;;;;6.14;83.07;102320.81;5192785;28;20229;-77
2022/04/17 06:38:01;;;;;;;10.63;3.45;;;;;;;8.03;78.02;102312.53;5198999;28;20052;-76
2022/04/17 06:40:36;;;;;;;9.75;3.45;;;;;;;10.49;68.75;102297.16;5201013;28;20426;-77
2022/04/17 06:43:08;;;;;;;5.22;2.92;;;;;;;12.62;62.95;102293.66;5193679;28;20036;-77
2022/04/17 06:45:40;;;;;;;7.63;3.40;;;;;;;12.41;60.40;102296.63;5199797;28;20034;-77
2022/04/17 06:48:18;;;;;;;8.20;3.28;;;;;;;13.51;59.77;102291.16;5195817;28;20604;-77
2022/04/17 06:50:51;;;;;;;7.32;3.50;;;;;;;14.69;55.41;102295.47;5201598;28;20043;-77
2022/04/17 06:53:21;;;;;;;5.90;2.90;;;;;;;14.82;57.03;102303.94;5204971;28;20557;-77
2022/04/17 06:55:52;;;;;;;6.32;3.10;;;;;;;15.95;53.81;102302.50;5203105;28;20025;-77
2022/04/17 06:58:23;;;;;;;8.05;2.97;;;;;;;14.98;54.74;102295.59;5203901;28;20053;-77
2022/04/17 07:00:53;;;;;;;4.93;2.80;;;;;;;14.00;55.94;102298.84;5200381;28;20141;-77
2022/04/17 07:03:23;;;;;;;5.32;2.80;;;;;;;14.82;56.35;102295.13;5203562;28;20025;-77
2022/04/17 07:05:54;;;;;;;7.47;3.55;;;;;;;16.49;53.12;102291.13;5200462;28;20026;-77
2022/04/17 07:08:25;;;;;;;5.80;2.83;;;;;;;17.07;52.02;102282.97;5204153;28;20029;-77
2022/04/17 07:10:55;;;;;;;5.25;3.08;;;;;;;18.44;48.67;102273.31;5197971;28;20377;-77
2022/04/17 07:13:26;;;;;;;5.07;2.40;;;;;;;17.66;49.91;102279.06;5197811;28;20057;-77
2022/04/17 07:15:56;;;;;;;4.75;2.80;;;;;;;18.28;48.49;102277.50;5203642;28;20036;-77
2022/04/17 07:18:26;;;;;;;4.28;2.40;;;;;;;18.51;47.78;102273.00;5206909;28;20471;-77
2022/04/17 07:20:57;;;;;;;3.70;2.13;;;;;;;19.84;46.67;102274.16;5209866;28;20040;-78
2022/04/17 07:23:27;;;;;;;3.30;2.10;;;;;;;19.93;45.74;102273.75;5212537;28;20025;-77
2022/04/17 07:25:58;;;;;;;4.85;2.30;;;;;;;19.60;46.54;102267.34;5201978;28;20546;-77
2022/04/17 07:28:28;;;;;;;4.10;2.25;;;;;;;19.16;47.63;102274.63;5199557;28;20084;-77
2022/04/17 07:30:58;;;;;;;5.30;2.60;;;;;;;18.26;46.00;102276.66;5192788;28;20488;-78
2022/04/17 07:33:28;;;;;;;4.07;2.50;;;;;;;19.82;45.04;102271.56;5187464;28;20077;-77
2022/04/17 07:35:59;;;;;;;5.13;2.58;;;;;;;19.64;46.49;102272.41;5193841;28;20277;-77
2022/04/17 07:38:29;;;;;;;4.53;2.43;;;;;;;19.62;43.94;102271.63;5194582;28;20037;-78
2022/04/17 07:40:59;;;;;;;6.80;2.80;;;;;;;20.09;45.07;102267.66;5176324;28;20796;-77
2022/04/17 07:43:30;;;;;;;5.18;2.83;;;;;;;18.59;47.00;102267.38;5177909;28;20289;-78
2022/04/17 07:46:00;;;;;;;4.18;2.17;;;;;;;19.09;45.80;102269.63;5177770;28;20029;-78
2022/04/17 07:48:30;;;;;;;4.77;2.67;;;;;;;19.42;44.61;102271.66;5180840;28;20041;-78
2022/04/17 07:51:01;;;;;;;4.07;2.10;;;;;;;18.73;44.81;102280.00;5202564;28;20283;-78
2022/04/17 07:53:31;;;;;;;3.45;2.03;;;;;;;19.75;45.25;102274.59;5204322;28;20275;-77
2022/04/17 07:56:02;;;;;;;4.43;2.40;;;;;;;19.13;43.78;102274.69;5194794;28;20140;-78
2022/04/17 07:58:35;;;;;;;3.90;2.22;;;;;;;18.85;46.52;102279.50;5176729;28;20026;-78
2022/04/17 08:01:14;;;;;;;4.75;2.50;;;;;;;18.86;44.83;102273.25;5194625;28;20035;-77
2022/04/17 08:06:17;;;;;;;5.55;2.50;;;;;;;18.19;43.84;102275.22;5183191;28;20038;-78
2022/04/17 08:08:51;;;;;;;3.42;1.98;;;;;;;18.67;43.86;102262.66;5174762;28;20113;-77
2022/04/17 08:11:21;;;;;;;3.85;1.67;;;;;;;18.91;44.67;102263.31;5195647;28;20025;-78
2022/04/17 08:13:51;;;;;;;4.15;1.95;;;;;;;19.70;43.64;102255.34;5173323;28;20088;-77
2022/04/17 08:16:22;;;;;;;3.33;2.00;;;;;;;19.82;42.92;102245.00;5187349;28;20427;-78
2022/04/17 08:18:52;;;;;;;3.85;1.73;;;;;;;19.77;42.08;102257.66;5191722;28;20272;-78
2022/04/17 08:21:22;;;;;;;4.20;2.20;;;;;;;19.08;42.25;102249.34;5179776;28;20049;-78
2022/04/17 08:23:53;;;;;;;2.92;1.70;;;;;;;19.39;41.10;102242.63;5186061;28;20468;-78
2022/04/17 08:26:23;;;;;;;2.47;1.63;;;;;;;20.27;43.59;102224.25;5175448;28;20357;-78
2022/04/17 08:28:53;;;;;;;2.30;1.67;;;;;;;20.62;42.76;102228.69;5194588;28;20099;-78
2022/04/17 08:31:23;;;;;;;3.60;1.90;;;;;;;20.19;41.40;102221.13;5191247;28;20807;-78
2022/04/17 08:33:54;;;;;;;2.55;1.40;;;;;;;20.32;40.96;102230.19;5198304;28;20498;-78
2022/04/17 08:36:24;;;;;;;4.60;2.00;;;;;;;20.47;40.40;102218.81;5201721;28;20040;-78
2022/04/17 08:38:54;;;;;;;4.10;1.70;;;;;;;20.03;41.06;102222.81;5190469;28;20030;-77
2022/04/17 08:41:26;;;;;;;3.30;1.70;;;;;;;19.01;41.69;102227.56;5175561;28;20304;-79
2022/04/17 08:43:57;;;;;;;1.95;1.30;;;;;;;19.83;41.40;102224.66;5190171;28;20347;-78
2022/04/17 08:46:27;;;;;;;2.10;1.30;;;;;;;19.85;40.23;102225.44;5171789;28;20069;-78
2022/04/17 08:48:59;;;;;;;1.70;1.08;;;;;;;20.31;39.13;102220.50;5190771;28;20829;-78
2022/04/17 08:51:32;;;;;;;2.08;1.10;;;;;;;18.32;43.57;102228.81;5177213;28;20056;-78
2022/04/17 08:54:03;;;;;;;2.10;1.30;;;;;;;18.08;42.42;102229.75;5194673;28;20130;-78
2022/04/17 08:56:35;;;;;;;1.95;1.10;;;;;;;17.58;43.35;102213.25;5187776;28;20096;-78
2022/04/17 08:59:05;;;;;;;1.77;1.00;;;;;;;18.77;42.65;102217.16;5185946;28;20049;-78
2022/04/17 09:01:36;;;;;;;2.58;1.10;;;;;;;18.56;40.70;102217.19;5184906;28;20046;-78
2022/04/17 09:04:07;;;;;;;2.13;1.02;;;;;;;18.74;40.70;102217.28;5187866;28;20094;-78
2022/04/17 09:06:37;;;;;;;2.08;1.13;;;;;;;18.88;41.46;102220.19;5196441;28;20029;-77
2022/04/17 09:09:08;;;;;;;1.38;0.88;;;;;;;15.99;45.86;102225.88;5190571;28;20061;-77
2022/04/17 09:14:28;;;;;;;2.63;1.08;;;;;;;16.84;43.00;102208.94;5186467;28;20033;-77
2022/04/17 09:17:21;;;;;;;2.88;1.05;;;;;;;17.24;42.05;102219.78;5187607;28;20798;-77
2022/04/17 09:20:00;;;;;;;1.88;1.00;;;;;;;16.60;44.70;102220.38;5074016;29;20127;-77
2022/04/17 09:23:27;;;;;;;2.65;0.98;;;;;;;16.09;45.42;102214.13;5180751;23;20081;-77
2022/04/17 09:26:15;;;;;;;3.42;1.05;;;;;;;16.68;45.23;102204.22;5161297;28;20129;-77
2022/04/17 09:28:49;;;;;;;3.70;1.40;;;;;;;14.90;47.26;102226.47;5143398;28;20049;-77
2022/04/17 09:31:34;;;;;;;2.08;1.23;;;;;;;14.64;49.35;102210.50;5160682;28;20467;-76
2022/04/17 09:34:13;;;;;;;3.85;1.50;;;;;;;14.67;48.57;102212.19;5140406;28;20594;-77
2022/04/17 09:36:51;;;;;;;3.33;1.40;;;;;;;13.87;49.17;102201.00;5140631;28;20027;-77
2022/04/17 09:39:35;;;;;;;2.33;1.42;;;;;;;14.01;50.76;102205.94;5139607;28;20019;-76
2022/04/17 09:42:12;;;;;;;3.55;1.50;;;;;;;14.16;49.69;102189.81;5121748;28;20041;-77
2022/04/17 09:44:47;;;;;;;31.42;16.45;;;;;;;13.67;49.72;102190.09;5138061;28;20023;-77
2022/04/17 09:47:26;;;;;;;3.95;2.55;;;;;;;13.47;50.36;102188.78;5140005;28;20027;-79
2022/04/17 09:50:02;;;;;;;10.38;7.05;;;;;;;13.18;50.68;102183.28;5139267;28;20117;-77
2022/04/17 09:52:46;;;;;;;5.38;3.03;;;;;;;13.12;52.13;102183.41;5141782;28;20070;-76
2022/04/17 09:55:26;;;;;;;6.10;3.85;;;;;;;13.09;50.92;102173.81;5139495;28;20026;-76
2022/04/17 09:57:58;;;;;;;3.78;1.88;;;;;;;13.43;52.22;102180.09;5139528;28;20034;-76
2022/04/17 10:00:40;;;;;;;3.65;1.70;;;;;;;13.46;51.20;102168.66;5138817;28;20133;-76
2022/04/17 10:03:10;;;;;;;3.80;1.50;;;;;;;13.40;49.35;102168.81;5140033;28;20073;-76
2022/04/17 10:05:42;;;;;;;3.05;1.63;;;;;;;13.31;51.55;102161.13;5143293;28;20026;-76
2022/04/17 10:08:13;;;;;;;3.47;1.42;;;;;;;13.44;51.58;102157.34;5139687;28;20019;-77
2022/04/17 10:10:44;;;;;;;2.92;1.30;;;;;;;13.50;52.20;102151.94;5138843;28;20026;-76
2022/04/17 10:13:14;;;;;;;3.45;1.20;;;;;;;13.44;50.77;102159.97;5138837;28;20139;-76
2022/04/17 10:15:46;;;;;;;2.13;1.42;;;;;;;13.14;50.07;102147.47;5140095;28;20062;-77
2022/04/17 10:18:21;;;;;;;2.08;0.98;;;;;;;12.96;49.26;102155.72;5139758;28;20034;-77
2022/04/17 10:20:51;;;;;;;2.15;1.00;;;;;;;13.31;48.89;102142.72;5138418;28;20033;-78
2022/04/17 10:23:26;;;;;;;2.85;1.20;;;;;;;13.50;50.18;102123.03;5146183;28;20026;-77
2022/04/17 10:25:58;;;;;;;2.55;1.30;;;;;;;12.99;48.20;102134.66;5139987;28;20031;-77
2022/04/17 10:28:35;;;;;;;4.25;1.40;;;;;;;13.46;52.35;102122.25;5139745;28;20140;-77
2022/04/17 10:31:19;;;;;;;2.20;1.13;;;;;;;13.42;48.76;102114.47;5122561;28;20500;-77
2022/04/17 10:34:16;;;;;;;2.60;1.30;;;;;;;13.57;51.14;102116.75;5142348;28;20034;-77
2022/04/17 10:37:01;;;;;;;2.45;1.20;;;;;;;13.69;50.61;102106.81;5146301;28;20428;-77
2022/04/17 10:39:45;;;;;;;2.53;1.50;;;;;;;13.60;50.95;102103.56;5120335;28;20050;-78
2022/04/17 10:42:16;;;;;;;8.90;5.53;;;;;;;14.27;54.83;102103.63;5122697;28;20535;-77
2022/04/17 10:45:04;;;;;;;24.27;10.68;;;;;;;13.93;54.57;102095.69;5140212;28;20047;-77
2022/04/17 10:47:35;;;;;;;14.95;7.40;;;;;;;13.50;52.78;102096.78;5139613;28;20035;-78
2022/04/17 10:50:09;;;;;;;21.13;11.00;;;;;;;13.95;55.91;102082.53;5139499;28;20031;-78
2022/04/17 10:52:41;;;;;;;28.90;15.63;;;;;;;13.81;55.14;102089.88;5128812;28;20031;-78
2022/04/17 10:55:14;;;;;;;27.50;14.57;;;;;;;13.44;52.33;102091.66;5143932;28;20471;-78
2022/04/17 10:57:47;;;;;;;17.00;9.15;;;;;;;13.66;54.15;102078.00;5121832;28;20026;-78
2022/04/17 11:00:31;;;;;;;88.00;44.95;;;;;;;14.21;56.10;102069.59;5139204;28;20022;-78
2022/04/17 11:03:09;;;;;;;288.98;174.88;;;;;;;14.64;56.57;102067.53;5140049;28;20046;-78
2022/04/17 11:08:47;;;;;;;37.72;20.95;;;;;;;13.57;52.35;102072.94;5137463;28;20039;-78
2022/04/17 11:11:18;;;;;;;199.77;108.07;;;;;;;13.51;54.49;102064.34;5145304;28;20023;-77
2022/04/17 11:14:09;;;;;;;39.28;24.10;;;;;;;13.11;52.97;102060.91;5141587;28;20420;-78
2022/04/17 11:16:50;;;;;;;66.47;34.80;;;;;;;12.60;53.47;102056.75;5141894;28;20027;-78
2022/04/17 11:19:29;;;;;;;24.98;13.13;;;;;;;12.97;53.61;102055.09;5124309;28;20047;-79
2022/04/17 11:22:03;;;;;;;32.83;17.45;;;;;;;13.13;55.18;102059.13;5148019;28;20045;-77
2022/04/17 11:24:56;;;;;;;32.95;15.90;;;;;;;12.93;55.95;102069.19;5150368;28;20040;-78
2022/04/17 11:27:32;;;;;;;36.88;15.20;;;;;;;13.46;56.88;102059.22;5143282;28;20037;-78
2022/04/17 11:30:03;;;;;;;22.90;11.18;;;;;;;13.57;55.32;102056.34;5146244;28;20520;-78
2022/04/17 11:32:34;;;;;;;13.73;7.55;;;;;;;13.25;53.52;102064.09;5145650;28;20050;-78
2022/04/17 11:35:06;;;;;;;12.10;5.72;;;;;;;12.95;53.36;102062.16;5127958;28;20419;-78
2022/04/17 11:37:37;;;;;;;4.90;2.60;;;;;;;13.38;54.99;102061.16;5145177;28;20134;-78
2022/04/17 11:40:12;;;;;;;5.13;2.40;;;;;;;13.12;54.36;102047.78;5148947;28;20035;-78
2022/04/17 11:42:48;;;;;;;3.65;1.92;;;;;;;13.66;58.43;102048.22;5143346;28;20030;-78
2022/04/17 11:45:22;;;;;;;4.45;2.10;;;;;;;13.49;54.96;102040.75;5144746;28;20049;-78
2022/04/17 11:47:54;;;;;;;4.05;2.28;;;;;;;13.34;55.35;102040.25;5140475;28;20104;-78
2022/04/17 11:50:29;;;;;;;4.78;2.10;;;;;;;13.60;55.50;102036.09;5144038;28;20089;-77
2022/04/17 11:53:01;;;;;;;4.22;2.30;;;;;;;13.39;55.88;102031.38;5131194;28;20038;-79
2022/04/17 11:55:34;;;;;;;5.90;2.20;;;;;;;13.04;55.97;102027.84;5144663;28;20026;-80
2022/04/17 11:58:09;;;;;;;4.05;2.20;;;;;;;13.31;53.82;102021.94;5143631;28;20089;-79
2022/04/17 12:00:39;;;;;;;4.57;2.00;;;;;;;13.43;54.24;102019.03;5143356;28;20019;-79
2022/04/17 12:03:11;;;;;;;3.45;1.75;;;;;;;13.39;52.29;102020.00;5142684;28;20132;-77
2022/04/17 12:05:41;;;;;;;4.53;2.17;;;;;;;13.53;53.18;102013.50;5142127;28;20030;-77
2022/04/17 12:08:13;;;;;;;5.38;2.53;;;;;;;13.14;54.50;102013.59;5147485;28;20488;-77